sensor_id;sensor_type;location;lat;lon;timestamp;pressure;altitude;pressure_sealevel;temperature;humidity
11314;BME280;5712;48.858;9.206;2023-04-20T00:01:02;98142.78;;;3.46;92.40
11314;BME280;5712;48.858;9.206;2023-04-20T00:03:29;98144.22;;;3.53;91.97
11314;BME280;5712;48.858;9.206;2023-04-20T00:05:58;98139.75;;;3.55;91.86
11314;BME280;5712;48.858;9.206;2023-04-20T00:08:26;98139.66;;;3.58;91.30
11314;BME280;5712;48.858;9.206;2023-04-20T00:10:52;98136.53;;;3.70;89.66
11314;BME280;5712;48.858;9.206;2023-04-20T00:13:19;98124.19;;;3.74;88.74
11314;BME280;5712;48.858;9.206;2023-04-20T00:15:45;98124.19;;;3.74;88.70
11314;BME280;5712;48.858;9.206;2023-04-20T00:18:13;98126.84;;;3.72;88.80
11314;BME280;5712;48.858;9.206;2023-04-20T00:20:40;98123.47;;;3.70;89.21
11314;BME280;5712;48.858;9.206;2023-04-20T00:23:08;98131.63;;;3.63;90.17
11314;BME280;5712;48.858;9.206;2023-04-20T00:25:34;98127.34;;;3.60;90.81
11314;BME280;5712;48.858;9.206;2023-04-20T00:28:01;98116.25;;;3.55;90.82
11314;BME280;5712;48.858;9.206;2023-04-20T00:30:27;98113.63;;;3.55;90.62
11314;BME280;5712;48.858;9.206;2023-04-20T00:32:54;98112.66;;;3.58;90.58
11314;BME280;5712;48.858;9.206;2023-04-20T00:35:20;98111.94;;;3.54;91.00
11314;BME280;5712;48.858;9.206;2023-04-20T00:37:47;98103.31;;;3.52;91.14
11314;BME280;5712;48.858;9.206;2023-04-20T00:40:15;98098.47;;;3.43;91.56
11314;BME280;5712;48.858;9.206;2023-04-20T00:42:41;98105.53;;;3.41;92.43
11314;BME280;5712;48.858;9.206;2023-04-20T00:45:08;98097.56;;;3.44;92.97
11314;BME280;5712;48.858;9.206;2023-04-20T00:47:35;98098.22;;;3.49;92.60
11314;BME280;5712;48.858;9.206;2023-04-20T00:50:02;98089.59;;;3.47;93.00
11314;BME280;5712;48.858;9.206;2023-04-20T00:52:29;98092.25;;;3.46;92.81
11314;BME280;5712;48.858;9.206;2023-04-20T00:54:55;98087.13;;;3.44;92.70
11314;BME280;5712;48.858;9.206;2023-04-20T00:57:24;98082.22;;;3.37;93.16
11314;BME280;5712;48.858;9.206;2023-04-20T00:59:54;98083.56;;;3.25;94.24
11314;BME280;5712;48.858;9.206;2023-04-20T01:02:20;98076.84;;;3.20;95.08
11314;BME280;5712;48.858;9.206;2023-04-20T01:04:47;98078.06;;;3.11;95.21
11314;BME280;5712;48.858;9.206;2023-04-20T01:07:13;98078.97;;;3.10;96.25
11314;BME280;5712;48.858;9.206;2023-04-20T01:09:40;98074.72;;;3.08;96.75
11314;BME280;5712;48.858;9.206;2023-04-20T01:12:08;98080.25;;;3.00;97.83
11314;BME280;5712;48.858;9.206;2023-04-20T01:14:36;98077.63;;;3.00;98.30
11314;BME280;5712;48.858;9.206;2023-04-20T01:17:03;98068.25;;;2.96;99.07
11314;BME280;5712;48.858;9.206;2023-04-20T01:19:30;98064.91;;;2.93;99.73
11314;BME280;5712;48.858;9.206;2023-04-20T01:21:56;98063.38;;;2.87;100.00
11314;BME280;5712;48.858;9.206;2023-04-20T01:24:24;98058.09;;;2.89;100.00
11314;BME280;5712;48.858;9.206;2023-04-20T01:26:51;98055.53;;;2.87;100.00
11314;BME280;5712;48.858;9.206;2023-04-20T01:29:18;98046.03;;;2.86;100.00
11314;BME280;5712;48.858;9.206;2023-04-20T01:31:45;98044.84;;;2.93;100.00
11314;BME280;5712;48.858;9.206;2023-04-20T01:34:11;98039.06;;;2.87;100.00
11314;BME280;5712;48.858;9.206;2023-04-20T01:36:39;98036.84;;;2.98;99.18
11314;BME280;5712;48.858;9.206;2023-04-20T01:39:05;98024.13;;;3.10;96.70
11314;BME280;5712;48.858;9.206;2023-04-20T01:41:34;98016.16;;;3.13;95.16
11314;BME280;5712;48.858;9.206;2023-04-20T01:44:00;98007.50;;;3.33;92.98
11314;BME280;5712;48.858;9.206;2023-04-20T01:46:27;97999.91;;;3.47;91.11
11314;BME280;5712;48.858;9.206;2023-04-20T01:48:53;97988.63;;;3.46;90.04
11314;BME280;5712;48.858;9.206;2023-04-20T01:51:20;97986.69;;;3.51;89.87
11314;BME280;5712;48.858;9.206;2023-04-20T01:53:46;97984.84;;;3.53;89.22
11314;BME280;5712;48.858;9.206;2023-04-20T01:56:13;97980.41;;;3.35;89.68
11314;BME280;5712;48.858;9.206;2023-04-20T01:58:41;97985.19;;;3.26;91.16
11314;BME280;5712;48.858;9.206;2023-04-20T02:01:07;97991.97;;;3.30;91.26
11314;BME280;5712;48.858;9.206;2023-04-20T02:03:33;97993.25;;;3.20;91.60
11314;BME280;5712;48.858;9.206;2023-04-20T02:06:00;97984.72;;;3.16;92.09
11314;BME280;5712;48.858;9.206;2023-04-20T02:08:26;97981.84;;;3.22;92.27
11314;BME280;5712;48.858;9.206;2023-04-20T02:10:53;97977.03;;;3.33;91.38
11314;BME280;5712;48.858;9.206;2023-04-20T02:13:19;97971.91;;;3.30;90.95
11314;BME280;5712;48.858;9.206;2023-04-20T02:15:47;97980.09;;;3.43;90.48
11314;BME280;5712;48.858;9.206;2023-04-20T02:18:14;97972.19;;;3.44;89.84
11314;BME280;5712;48.858;9.206;2023-04-20T02:20:41;97973.22;;;3.40;89.70
11314;BME280;5712;48.858;9.206;2023-04-20T02:23:07;97968.25;;;3.34;89.63
11314;BME280;5712;48.858;9.206;2023-04-20T02:25:34;97968.53;;;3.28;90.39
11314;BME280;5712;48.858;9.206;2023-04-20T02:28:01;97974.13;;;3.19;90.90
11314;BME280;5712;48.858;9.206;2023-04-20T02:30:27;97966.91;;;3.06;91.46
11314;BME280;5712;48.858;9.206;2023-04-20T02:32:55;97972.63;;;2.94;92.32
11314;BME280;5712;48.858;9.206;2023-04-20T02:35:22;97978.03;;;2.89;92.99
11314;BME280;5712;48.858;9.206;2023-04-20T02:37:48;97971.09;;;2.68;94.72
11314;BME280;5712;48.858;9.206;2023-04-20T02:40:15;97972.59;;;2.52;96.05
11314;BME280;5712;48.858;9.206;2023-04-20T02:42:42;97970.72;;;2.34;98.44
11314;BME280;5712;48.858;9.206;2023-04-20T02:45:09;97973.75;;;2.24;100.00
11314;BME280;5712;48.858;9.206;2023-04-20T02:47:36;97968.72;;;2.19;100.00
11314;BME280;5712;48.858;9.206;2023-04-20T02:50:05;97965.34;;;2.17;100.00
11314;BME280;5712;48.858;9.206;2023-04-20T02:52:31;97958.97;;;2.24;100.00
11314;BME280;5712;48.858;9.206;2023-04-20T02:54:58;97950.72;;;2.35;100.00
11314;BME280;5712;48.858;9.206;2023-04-20T02:57:24;97945.97;;;2.44;99.51
11314;BME280;5712;48.858;9.206;2023-04-20T02:59:51;97939.94;;;2.44;99.27
11314;BME280;5712;48.858;9.206;2023-04-20T03:02:18;97943.69;;;2.37;99.09
11314;BME280;5712;48.858;9.206;2023-04-20T03:04:44;97948.78;;;2.18;100.00
11314;BME280;5712;48.858;9.206;2023-04-20T03:07:12;97956.13;;;2.09;100.00
11314;BME280;5712;48.858;9.206;2023-04-20T03:09:39;97956.88;;;1.89;100.00
11314;BME280;5712;48.858;9.206;2023-04-20T03:12:06;97965.53;;;1.67;100.00
11314;BME280;5712;48.858;9.206;2023-04-20T03:14:33;97960.88;;;1.52;100.00
11314;BME280;5712;48.858;9.206;2023-04-20T03:17:00;97965.78;;;1.36;100.00
11314;BME280;5712;48.858;9.206;2023-04-20T03:19:27;97950.34;;;1.32;100.00
11314;BME280;5712;48.858;9.206;2023-04-20T03:21:53;97953.09;;;1.27;100.00
11314;BME280;5712;48.858;9.206;2023-04-20T03:24:21;97949.72;;;1.25;100.00
11314;BME280;5712;48.858;9.206;2023-04-20T03:26:48;97950.59;;;1.24;100.00
11314;BME280;5712;48.858;9.206;2023-04-20T03:29:14;97950.03;;;1.16;100.00
11314;BME280;5712;48.858;9.206;2023-04-20T03:31:41;97952.69;;;1.15;100.00
11314;BME280;5712;48.858;9.206;2023-04-20T03:34:07;97949.44;;;1.08;100.00
11314;BME280;5712;48.858;9.206;2023-04-20T03:36:34;97949.66;;;1.02;100.00
11314;BME280;5712;48.858;9.206;2023-04-20T03:39:01;97951.44;;;1.00;100.00
11314;BME280;5712;48.858;9.206;2023-04-20T03:41:30;97949.88;;;0.96;100.00
11314;BME280;5712;48.858;9.206;2023-04-20T03:43:56;97952.44;;;0.98;100.00
11314;BME280;5712;48.858;9.206;2023-04-20T03:46:23;97955.91;;;0.97;100.00
11314;BME280;5712;48.858;9.206;2023-04-20T03:48:49;97947.22;;;0.98;100.00
11314;BME280;5712;48.858;9.206;2023-04-20T03:51:16;97949.88;;;0.96;100.00
11314;BME280;5712;48.858;9.206;2023-04-20T03:53:42;97944.66;;;0.96;100.00
11314;BME280;5712;48.858;9.206;2023-04-20T03:56:09;97946.38;;;0.97;100.00
11314;BME280;5712;48.858;9.206;2023-04-20T03:58:36;97943.72;;;0.99;100.00
11314;BME280;5712;48.858;9.206;2023-04-20T04:01:04;97944.72;;;0.95;100.00
11314;BME280;5712;48.858;9.206;2023-04-20T04:03:32;97948.97;;;0.97;100.00
11314;BME280;5712;48.858;9.206;2023-04-20T04:05:59;97936.66;;;1.02;100.00
11314;BME280;5712;48.858;9.206;2023-04-20T04:08:25;97937.34;;;1.07;100.00
11314;BME280;5712;48.858;9.206;2023-04-20T04:10:52;97943.34;;;1.09;100.00
11314;BME280;5712;48.858;9.206;2023-04-20T04:13:18;97941.69;;;1.07;100.00
11314;BME280;5712;48.858;9.206;2023-04-20T04:15:46;97937.34;;;1.07;100.00
11314;BME280;5712;48.858;9.206;2023-04-20T04:18:13;97936.50;;;1.07;100.00
11314;BME280;5712;48.858;9.206;2023-04-20T04:20:39;97933.63;;;1.14;100.00
11314;BME280;5712;48.858;9.206;2023-04-20T04:23:06;97933.97;;;1.28;100.00
11314;BME280;5712;48.858;9.206;2023-04-20T04:25:32;97931.31;;;1.30;100.00
11314;BME280;5712;48.858;9.206;2023-04-20T04:27:59;97932.53;;;1.20;100.00
11314;BME280;5712;48.858;9.206;2023-04-20T04:30:25;97935.53;;;1.09;100.00
11314;BME280;5712;48.858;9.206;2023-04-20T04:32:53;97929.63;;;1.04;100.00
11314;BME280;5712;48.858;9.206;2023-04-20T04:35:20;97938.34;;;1.03;100.00
11314;BME280;5712;48.858;9.206;2023-04-20T04:37:47;97935.75;;;1.03;100.00
11314;BME280;5712;48.858;9.206;2023-04-20T04:40:13;97936.53;;;1.05;100.00
11314;BME280;5712;48.858;9.206;2023-04-20T04:42:40;97931.94;;;1.13;100.00
11314;BME280;5712;48.858;9.206;2023-04-20T04:45:07;97940.09;;;1.27;100.00
11314;BME280;5712;48.858;9.206;2023-04-20T04:47:34;97936.25;;;1.37;100.00
11314;BME280;5712;48.858;9.206;2023-04-20T04:50:03;97932.53;;;1.44;100.00
11314;BME280;5712;48.858;9.206;2023-04-20T04:52:30;97925.28;;;1.52;100.00
11314;BME280;5712;48.858;9.206;2023-04-20T04:54:57;97935.47;;;1.58;100.00
11314;BME280;5712;48.858;9.206;2023-04-20T04:57:23;97930.25;;;1.58;100.00
11314;BME280;5712;48.858;9.206;2023-04-20T04:59:50;97924.09;;;1.61;100.00
11314;BME280;5712;48.858;9.206;2023-04-20T05:02:17;97925.50;;;1.69;100.00
11314;BME280;5712;48.858;9.206;2023-04-20T05:04:43;97924.59;;;1.70;100.00
11314;BME280;5712;48.858;9.206;2023-04-20T05:07:15;97922.84;;;1.71;100.00
11314;BME280;5712;48.858;9.206;2023-04-20T05:09:42;97928.56;;;1.80;100.00
11314;BME280;5712;48.858;9.206;2023-04-20T05:12:09;97932.88;;;1.81;100.00
11314;BME280;5712;48.858;9.206;2023-04-20T05:14:35;97934.19;;;1.91;100.00
11314;BME280;5712;48.858;9.206;2023-04-20T05:17:03;97934.63;;;2.02;100.00
11314;BME280;5712;48.858;9.206;2023-04-20T05:19:29;97931.78;;;2.08;100.00
11314;BME280;5712;48.858;9.206;2023-04-20T05:21:56;97937.69;;;2.13;100.00
11314;BME280;5712;48.858;9.206;2023-04-20T05:24:24;97938.34;;;2.18;100.00
11314;BME280;5712;48.858;9.206;2023-04-20T05:26:50;97946.03;;;2.21;100.00
11314;BME280;5712;48.858;9.206;2023-04-20T05:29:17;97944.00;;;2.29;100.00
11314;BME280;5712;48.858;9.206;2023-04-20T05:31:44;97943.38;;;2.44;100.00
11314;BME280;5712;48.858;9.206;2023-04-20T05:34:10;97940.28;;;2.56;100.00
11314;BME280;5712;48.858;9.206;2023-04-20T05:36:38;97938.34;;;2.61;100.00
11314;BME280;5712;48.858;9.206;2023-04-20T05:39:05;97941.34;;;2.72;100.00
11314;BME280;5712;48.858;9.206;2023-04-20T05:41:32;97933.78;;;2.86;100.00
11314;BME280;5712;48.858;9.206;2023-04-20T05:43:59;97938.75;;;2.92;100.00
11314;BME280;5712;48.858;9.206;2023-04-20T05:46:25;97930.66;;;2.98;100.00
11314;BME280;5712;48.858;9.206;2023-04-20T05:48:53;97931.72;;;3.14;100.00
11314;BME280;5712;48.858;9.206;2023-04-20T05:51:19;97931.19;;;3.26;100.00
11314;BME280;5712;48.858;9.206;2023-04-20T05:53:46;97935.88;;;3.38;100.00
11314;BME280;5712;48.858;9.206;2023-04-20T05:56:13;97924.03;;;3.50;100.00
11314;BME280;5712;48.858;9.206;2023-04-20T05:58:41;97918.19;;;3.63;100.00
11314;BME280;5712;48.858;9.206;2023-04-20T06:01:08;97916.16;;;3.88;100.00
11314;BME280;5712;48.858;9.206;2023-04-20T06:03:35;97908.81;;;4.32;100.00
11314;BME280;5712;48.858;9.206;2023-04-20T06:06:02;97902.03;;;4.63;97.07
11314;BME280;5712;48.858;9.206;2023-04-20T06:08:29;97898.81;;;4.75;95.15
11314;BME280;5712;48.858;9.206;2023-04-20T06:10:55;97904.69;;;4.97;93.75
11314;BME280;5712;48.858;9.206;2023-04-20T06:13:22;97904.84;;;5.44;93.11
11314;BME280;5712;48.858;9.206;2023-04-20T06:15:50;97895.47;;;5.88;89.72
11314;BME280;5712;48.858;9.206;2023-04-20T06:18:16;97890.66;;;6.11;87.17
11314;BME280;5712;48.858;9.206;2023-04-20T06:20:43;97895.81;;;5.97;87.75
11314;BME280;5712;48.858;9.206;2023-04-20T06:23:10;97905.91;;;5.72;89.50
11314;BME280;5712;48.858;9.206;2023-04-20T06:25:37;97909.09;;;5.46;90.87
11314;BME280;5712;48.858;9.206;2023-04-20T06:28:04;97911.66;;;5.31;92.97
11314;BME280;5712;48.858;9.206;2023-04-20T06:30:31;97912.78;;;5.25;94.12
11314;BME280;5712;48.858;9.206;2023-04-20T06:32:59;97907.81;;;5.21;94.81
11314;BME280;5712;48.858;9.206;2023-04-20T06:35:26;97908.66;;;5.21;95.11
11314;BME280;5712;48.858;9.206;2023-04-20T06:37:53;97907.94;;;5.18;95.00
11314;BME280;5712;48.858;9.206;2023-04-20T06:40:21;97895.47;;;5.23;90.94
11314;BME280;5712;48.858;9.206;2023-04-20T06:42:48;97893.78;;;5.22;88.86
11314;BME280;5712;48.858;9.206;2023-04-20T06:45:14;97889.84;;;5.13;88.44
11314;BME280;5712;48.858;9.206;2023-04-20T06:47:42;97890.63;;;5.15;88.29
11314;BME280;5712;48.858;9.206;2023-04-20T06:50:10;97895.31;;;5.26;91.05
11314;BME280;5712;48.858;9.206;2023-04-20T06:52:37;97904.16;;;5.40;91.27
11314;BME280;5712;48.858;9.206;2023-04-20T06:55:05;97896.19;;;5.42;91.24
11314;BME280;5712;48.858;9.206;2023-04-20T06:57:32;97905.56;;;5.63;90.97
11314;BME280;5712;48.858;9.206;2023-04-20T06:59:58;97892.19;;;5.67;90.50
11314;BME280;5712;48.858;9.206;2023-04-20T07:02:26;97889.09;;;5.76;89.90
11314;BME280;5712;48.858;9.206;2023-04-20T07:04:52;97891.25;;;5.85;89.61
11314;BME280;5712;48.858;9.206;2023-04-20T07:07:20;97890.44;;;6.00;89.09
11314;BME280;5712;48.858;9.206;2023-04-20T07:09:47;97882.78;;;6.11;88.72
11314;BME280;5712;48.858;9.206;2023-04-20T07:12:13;97890.91;;;6.22;89.37
11314;BME280;5712;48.858;9.206;2023-04-20T07:14:40;97880.47;;;6.36;86.28
11314;BME280;5712;48.858;9.206;2023-04-20T07:17:07;97878.09;;;6.47;87.90
11314;BME280;5712;48.858;9.206;2023-04-20T07:19:33;97877.59;;;6.56;88.18
11314;BME280;5712;48.858;9.206;2023-04-20T07:22:00;97863.09;;;6.65;85.93
11314;BME280;5712;48.858;9.206;2023-04-20T07:24:28;97857.72;;;6.66;85.15
11314;BME280;5712;48.858;9.206;2023-04-20T07:26:55;97870.69;;;6.69;86.84
11314;BME280;5712;48.858;9.206;2023-04-20T07:29:21;97876.25;;;6.79;87.97
11314;BME280;5712;48.858;9.206;2023-04-20T07:31:48;97888.75;;;6.89;88.66
11314;BME280;5712;48.858;9.206;2023-04-20T07:34:14;97871.44;;;7.01;88.38
11314;BME280;5712;48.858;9.206;2023-04-20T07:36:41;97873.25;;;7.14;88.66
11314;BME280;5712;48.858;9.206;2023-04-20T07:39:07;97871.38;;;7.16;87.13
11314;BME280;5712;48.858;9.206;2023-04-20T07:41:36;97877.69;;;7.28;87.21
11314;BME280;5712;48.858;9.206;2023-04-20T07:44:02;97872.91;;;7.48;87.27
11314;BME280;5712;48.858;9.206;2023-04-20T07:46:29;97871.19;;;7.75;87.28
11314;BME280;5712;48.858;9.206;2023-04-20T07:48:56;97867.00;;;8.13;84.16
11314;BME280;5712;48.858;9.206;2023-04-20T07:51:22;97842.72;;;8.36;78.87
11314;BME280;5712;48.858;9.206;2023-04-20T07:53:49;97856.25;;;8.44;81.90
11314;BME280;5712;48.858;9.206;2023-04-20T07:56:15;97857.72;;;8.48;81.54
11314;BME280;5712;48.858;9.206;2023-04-20T07:58:43;97843.09;;;8.44;78.02
11314;BME280;5712;48.858;9.206;2023-04-20T08:01:10;97859.00;;;8.55;82.30
11314;BME280;5712;48.858;9.206;2023-04-20T08:03:36;97856.22;;;8.70;82.15
11314;BME280;5712;48.858;9.206;2023-04-20T08:06:03;97856.97;;;8.72;81.40
11314;BME280;5712;48.858;9.206;2023-04-20T08:08:29;97856.66;;;8.77;80.38
11314;BME280;5712;48.858;9.206;2023-04-20T08:10:56;97841.19;;;8.85;77.22
11314;BME280;5712;48.858;9.206;2023-04-20T08:13:23;97857.66;;;9.01;79.54
11314;BME280;5712;48.858;9.206;2023-04-20T08:15:51;97860.84;;;9.06;81.26
11314;BME280;5712;48.858;9.206;2023-04-20T08:18:17;97837.22;;;9.17;78.15
11314;BME280;5712;48.858;9.206;2023-04-20T08:20:44;97851.38;;;9.28;78.91
11314;BME280;5712;48.858;9.206;2023-04-20T08:23:11;97834.91;;;9.25;77.15
11314;BME280;5712;48.858;9.206;2023-04-20T08:25:38;97836.69;;;9.24;77.54
11314;BME280;5712;48.858;9.206;2023-04-20T08:28:05;97833.41;;;9.21;77.40
11314;BME280;5712;48.858;9.206;2023-04-20T08:30:31;97833.00;;;9.14;76.48
11314;BME280;5712;48.858;9.206;2023-04-20T08:32:59;97834.78;;;9.14;77.09
11314;BME280;5712;48.858;9.206;2023-04-20T08:35:26;97830.25;;;9.03;75.78
11314;BME280;5712;48.858;9.206;2023-04-20T08:37:52;97839.81;;;8.92;77.37
11314;BME280;5712;48.858;9.206;2023-04-20T08:40:23;97845.38;;;8.75;78.59
11314;BME280;5712;48.858;9.206;2023-04-20T08:42:52;97852.59;;;8.59;79.71
11314;BME280;5712;48.858;9.206;2023-04-20T08:45:19;97850.78;;;8.47;79.94
11314;BME280;5712;48.858;9.206;2023-04-20T08:47:45;97854.03;;;8.38;80.71
11314;BME280;5712;48.858;9.206;2023-04-20T08:50:14;97849.28;;;8.43;80.60
11314;BME280;5712;48.858;9.206;2023-04-20T08:52:41;97853.72;;;8.42;80.85
11314;BME280;5712;48.858;9.206;2023-04-20T08:55:08;97853.94;;;8.52;80.63
11314;BME280;5712;48.858;9.206;2023-04-20T08:57:35;97848.88;;;8.49;79.81
11314;BME280;5712;48.858;9.206;2023-04-20T09:00:04;97855.16;;;8.34;80.69
11314;BME280;5712;48.858;9.206;2023-04-20T09:02:32;97846.69;;;8.29;81.46
11314;BME280;5712;48.858;9.206;2023-04-20T09:05:02;97852.81;;;8.29;81.41
11314;BME280;5712;48.858;9.206;2023-04-20T09:07:31;97853.66;;;8.30;81.40
11314;BME280;5712;48.858;9.206;2023-04-20T09:09:59;97853.22;;;8.23;81.54
11314;BME280;5712;48.858;9.206;2023-04-20T09:12:26;97850.09;;;8.17;81.61
11314;BME280;5712;48.858;9.206;2023-04-20T09:14:53;97856.47;;;8.13;82.19
11314;BME280;5712;48.858;9.206;2023-04-20T09:17:30;97858.19;;;8.14;82.75
11314;BME280;5712;48.858;9.206;2023-04-20T09:19:57;97865.31;;;8.12;83.17
11314;BME280;5712;48.858;9.206;2023-04-20T09:22:31;97866.25;;;8.11;84.02
11314;BME280;5712;48.858;9.206;2023-04-20T09:24:58;97861.94;;;8.10;84.60
11314;BME280;5712;48.858;9.206;2023-04-20T09:27:25;97860.06;;;8.12;84.47
11314;BME280;5712;48.858;9.206;2023-04-20T09:29:56;97853.09;;;8.11;84.77
11314;BME280;5712;48.858;9.206;2023-04-20T09:32:23;97847.53;;;8.15;84.22
11314;BME280;5712;48.858;9.206;2023-04-20T09:34:50;97860.47;;;8.20;84.28
11314;BME280;5712;48.858;9.206;2023-04-20T09:37:17;97847.31;;;8.20;85.28
11314;BME280;5712;48.858;9.206;2023-04-20T09:39:45;97844.78;;;8.31;84.94
11314;BME280;5712;48.858;9.206;2023-04-20T09:42:13;97840.63;;;8.41;83.61
11314;BME280;5712;48.858;9.206;2023-04-20T09:44:40;97831.06;;;8.52;81.94
11314;BME280;5712;48.858;9.206;2023-04-20T09:47:07;97821.09;;;8.57;81.65
11314;BME280;5712;48.858;9.206;2023-04-20T09:49:34;97817.97;;;8.65;81.51
11314;BME280;5712;48.858;9.206;2023-04-20T09:52:02;97817.31;;;8.61;81.02
11314;BME280;5712;48.858;9.206;2023-04-20T09:54:29;97820.81;;;8.62;81.28
11314;BME280;5712;48.858;9.206;2023-04-20T09:56:58;97822.81;;;8.71;80.75
11314;BME280;5712;48.858;9.206;2023-04-20T09:59:26;97827.34;;;8.69;80.95
11314;BME280;5712;48.858;9.206;2023-04-20T10:01:53;97830.50;;;8.74;81.46
11314;BME280;5712;48.858;9.206;2023-04-20T10:04:19;97831.44;;;8.73;81.72
11314;BME280;5712;48.858;9.206;2023-04-20T10:06:55;97826.41;;;8.70;81.55
11314;BME280;5712;48.858;9.206;2023-04-20T10:09:27;97820.31;;;8.82;81.61
11314;BME280;5712;48.858;9.206;2023-04-20T10:12:05;97807.31;;;8.79;79.99
11314;BME280;5712;48.858;9.206;2023-04-20T10:14:32;97814.63;;;8.88;80.37
11314;BME280;5712;48.858;9.206;2023-04-20T10:17:01;97819.69;;;8.91;80.42
11314;BME280;5712;48.858;9.206;2023-04-20T10:19:38;97810.63;;;8.95;79.43
11314;BME280;5712;48.858;9.206;2023-04-20T10:22:06;97803.03;;;8.90;79.89
11314;BME280;5712;48.858;9.206;2023-04-20T10:24:33;97810.41;;;8.98;81.17
11314;BME280;5712;48.858;9.206;2023-04-20T10:27:00;97804.09;;;9.13;80.63
11314;BME280;5712;48.858;9.206;2023-04-20T10:29:29;97800.50;;;9.14;80.88
11314;BME280;5712;48.858;9.206;2023-04-20T10:31:56;97797.16;;;9.12;81.00
11314;BME280;5712;48.858;9.206;2023-04-20T10:34:30;97806.22;;;9.33;79.40
11314;BME280;5712;48.858;9.206;2023-04-20T10:37:06;97792.91;;;9.34;78.68
11314;BME280;5712;48.858;9.206;2023-04-20T10:39:34;97791.03;;;9.24;79.12
11314;BME280;5712;48.858;9.206;2023-04-20T10:42:02;97786.81;;;9.09;78.56
11314;BME280;5712;48.858;9.206;2023-04-20T10:44:30;97805.78;;;9.14;82.28
11314;BME280;5712;48.858;9.206;2023-04-20T10:46:58;97803.03;;;9.03;81.05
11314;BME280;5712;48.858;9.206;2023-04-20T10:49:25;97800.81;;;8.84;83.47
11314;BME280;5712;48.858;9.206;2023-04-20T10:51:53;97801.59;;;8.60;84.33
11314;BME280;5712;48.858;9.206;2023-04-20T10:54:20;97813.72;;;8.50;88.20
11314;BME280;5712;48.858;9.206;2023-04-20T10:56:48;97815.88;;;8.43;91.21
11314;BME280;5712;48.858;9.206;2023-04-20T10:59:16;97799.88;;;8.46;93.20
11314;BME280;5712;48.858;9.206;2023-04-20T11:01:45;97800.81;;;8.33;95.42
11314;BME280;5712;48.858;9.206;2023-04-20T11:04:12;97785.31;;;8.28;95.85
11314;BME280;5712;48.858;9.206;2023-04-20T11:06:40;97775.28;;;8.21;95.72
11314;BME280;5712;48.858;9.206;2023-04-20T11:09:17;97776.22;;;8.06;99.17
11314;BME280;5712;48.858;9.206;2023-04-20T11:11:44;97779.84;;;7.91;100.00
11314;BME280;5712;48.858;9.206;2023-04-20T11:14:11;97776.06;;;7.68;100.00
11314;BME280;5712;48.858;9.206;2023-04-20T11:16:38;97769.03;;;7.55;100.00
11314;BME280;5712;48.858;9.206;2023-04-20T11:19:06;97773.84;;;7.34;100.00
11314;BME280;5712;48.858;9.206;2023-04-20T11:21:35;97783.34;;;7.23;100.00
11314;BME280;5712;48.858;9.206;2023-04-20T11:24:03;97768.13;;;7.14;100.00
11314;BME280;5712;48.858;9.206;2023-04-20T11:26:35;97772.28;;;7.04;100.00
11314;BME280;5712;48.858;9.206;2023-04-20T11:29:03;97764.00;;;7.10;100.00
11314;BME280;5712;48.858;9.206;2023-04-20T11:31:29;97758.84;;;7.09;100.00
11314;BME280;5712;48.858;9.206;2023-04-20T11:33:56;97761.94;;;7.15;100.00
11314;BME280;5712;48.858;9.206;2023-04-20T11:36:25;97755.66;;;7.32;100.00
11314;BME280;5712;48.858;9.206;2023-04-20T11:38:52;97756.94;;;7.38;100.00
11314;BME280;5712;48.858;9.206;2023-04-20T11:41:20;97764.72;;;7.40;100.00
11314;BME280;5712;48.858;9.206;2023-04-20T11:43:48;97768.13;;;7.42;100.00
11314;BME280;5712;48.858;9.206;2023-04-20T11:46:16;97771.50;;;7.44;100.00
11314;BME280;5712;48.858;9.206;2023-04-20T11:48:44;97766.44;;;7.41;100.00
11314;BME280;5712;48.858;9.206;2023-04-20T11:51:10;97769.97;;;7.40;100.00
11314;BME280;5712;48.858;9.206;2023-04-20T11:53:38;97768.47;;;7.50;100.00
11314;BME280;5712;48.858;9.206;2023-04-20T11:56:05;97773.56;;;7.53;100.00
11314;BME280;5712;48.858;9.206;2023-04-20T11:58:32;97773.09;;;7.46;100.00
11314;BME280;5712;48.858;9.206;2023-04-20T12:00:59;97781.81;;;7.47;100.00
11314;BME280;5712;48.858;9.206;2023-04-20T12:03:26;97781.63;;;7.50;100.00
11314;BME280;5712;48.858;9.206;2023-04-20T12:05:52;97778.31;;;7.60;100.00
11314;BME280;5712;48.858;9.206;2023-04-20T12:08:19;97776.91;;;7.69;100.00
11314;BME280;5712;48.858;9.206;2023-04-20T12:10:47;97772.66;;;7.66;100.00
11314;BME280;5712;48.858;9.206;2023-04-20T12:13:14;97766.94;;;7.74;100.00
11314;BME280;5712;48.858;9.206;2023-04-20T12:15:40;97764.13;;;7.77;100.00
11314;BME280;5712;48.858;9.206;2023-04-20T12:18:07;97758.88;;;7.77;100.00
11314;BME280;5712;48.858;9.206;2023-04-20T12:20:35;97754.34;;;7.79;100.00
11314;BME280;5712;48.858;9.206;2023-04-20T12:23:01;97757.06;;;7.77;100.00
11314;BME280;5712;48.858;9.206;2023-04-20T12:25:28;97756.97;;;7.79;100.00
11314;BME280;5712;48.858;9.206;2023-04-20T12:27:56;97748.69;;;7.85;100.00
11314;BME280;5712;48.858;9.206;2023-04-20T12:30:22;97745.00;;;7.87;100.00
11314;BME280;5712;48.858;9.206;2023-04-20T12:32:49;97743.19;;;7.88;100.00
11314;BME280;5712;48.858;9.206;2023-04-20T12:35:15;97745.00;;;7.87;100.00
11314;BME280;5712;48.858;9.206;2023-04-20T12:37:42;97746.22;;;7.82;100.00
11314;BME280;5712;48.858;9.206;2023-04-20T12:40:09;97753.47;;;7.92;100.00
11314;BME280;5712;48.858;9.206;2023-04-20T12:42:36;97752.94;;;8.00;100.00
11314;BME280;5712;48.858;9.206;2023-04-20T12:45:05;97754.09;;;7.96;100.00
11314;BME280;5712;48.858;9.206;2023-04-20T12:47:32;97749.09;;;8.05;100.00
11314;BME280;5712;48.858;9.206;2023-04-20T12:49:58;97742.56;;;8.11;100.00
11314;BME280;5712;48.858;9.206;2023-04-20T12:52:25;97741.22;;;8.18;100.00
11314;BME280;5712;48.858;9.206;2023-04-20T12:54:51;97743.38;;;8.25;100.00
11314;BME280;5712;48.858;9.206;2023-04-20T12:57:18;97737.81;;;8.30;100.00
11314;BME280;5712;48.858;9.206;2023-04-20T12:59:44;97721.69;;;8.34;100.00
11314;BME280;5712;48.858;9.206;2023-04-20T13:02:15;97699.16;;;8.43;98.75
11314;BME280;5712;48.858;9.206;2023-04-20T13:04:41;97704.03;;;8.49;95.58
11314;BME280;5712;48.858;9.206;2023-04-20T13:07:08;97692.34;;;8.53;95.32
11314;BME280;5712;48.858;9.206;2023-04-20T13:09:34;97693.59;;;8.60;94.24
11314;BME280;5712;48.858;9.206;2023-04-20T13:12:01;97698.88;;;8.60;93.33
11314;BME280;5712;48.858;9.206;2023-04-20T13:14:27;97707.31;;;8.65;92.71
11314;BME280;5712;48.858;9.206;2023-04-20T13:16:54;97712.59;;;8.65;93.83